sensor_id;sensor_type;location;lat;lon;timestamp;temperature;humidity
5415;DHT22;2730;51.512;7.504;2023-03-08T00:01:31;1.80;99.90
5415;DHT22;2730;51.512;7.504;2023-03-08T00:03:58;1.80;99.90
5415;DHT22;2730;51.512;7.504;2023-03-08T00:06:26;1.70;99.90
5415;DHT22;2730;51.512;7.504;2023-03-08T00:08:54;1.80;99.90
5415;DHT22;2730;51.512;7.504;2023-03-08T00:11:21;1.90;99.90
5415;DHT22;2730;51.512;7.504;2023-03-08T00:13:48;1.80;99.90
5415;DHT22;2730;51.512;7.504;2023-03-08T00:16:15;1.90;99.90
5415;DHT22;2730;51.512;7.504;2023-03-08T00:18:42;1.90;99.90
5415;DHT22;2730;51.512;7.504;2023-03-08T00:21:10;1.80;99.90
5415;DHT22;2730;51.512;7.504;2023-03-08T00:23:39;1.70;99.90
5415;DHT22;2730;51.512;7.504;2023-03-08T00:26:07;1.60;99.90
5415;DHT22;2730;51.512;7.504;2023-03-08T00:28:34;1.60;99.90
5415;DHT22;2730;51.512;7.504;2023-03-08T00:31:02;1.50;99.90
5415;DHT22;2730;51.512;7.504;2023-03-08T00:33:29;1.40;99.90
5415;DHT22;2730;51.512;7.504;2023-03-08T00:35:59;1.40;99.90
5415;DHT22;2730;51.512;7.504;2023-03-08T00:38:26;1.30;99.90
5415;DHT22;2730;51.512;7.504;2023-03-08T00:40:54;1.20;99.90
5415;DHT22;2730;51.512;7.504;2023-03-08T00:43:21;1.10;99.90
5415;DHT22;2730;51.512;7.504;2023-03-08T00:45:47;1.00;99.90
5415;DHT22;2730;51.512;7.504;2023-03-08T00:48:14;1.10;99.90
5415;DHT22;2730;51.512;7.504;2023-03-08T00:50:41;1.10;99.90
5415;DHT22;2730;51.512;7.504;2023-03-08T00:53:09;1.10;99.90
5415;DHT22;2730;51.512;7.504;2023-03-08T00:55:35;1.00;99.90
5415;DHT22;2730;51.512;7.504;2023-03-08T00:58:04;1.00;99.90
5415;DHT22;2730;51.512;7.504;2023-03-08T01:00:31;1.00;99.90
5415;DHT22;2730;51.512;7.504;2023-03-08T01:02:57;1.00;99.90
5415;DHT22;2730;51.512;7.504;2023-03-08T01:05:24;1.00;99.90
5415;DHT22;2730;51.512;7.504;2023-03-08T01:07:51;0.90;99.90
5415;DHT22;2730;51.512;7.504;2023-03-08T01:10:18;1.00;99.90
5415;DHT22;2730;51.512;7.504;2023-03-08T01:12:45;1.00;99.90
5415;DHT22;2730;51.512;7.504;2023-03-08T01:15:13;1.00;99.90
5415;DHT22;2730;51.512;7.504;2023-03-08T01:17:40;0.90;99.90
5415;DHT22;2730;51.512;7.504;2023-03-08T01:20:08;1.00;99.90
5415;DHT22;2730;51.512;7.504;2023-03-08T01:22:35;1.10;99.90
5415;DHT22;2730;51.512;7.504;2023-03-08T01:25:02;1.10;99.90
5415;DHT22;2730;51.512;7.504;2023-03-08T01:27:29;1.10;99.90
5415;DHT22;2730;51.512;7.504;2023-03-08T01:29:55;1.20;99.90
5415;DHT22;2730;51.512;7.504;2023-03-08T01:32:23;1.30;99.90
5415;DHT22;2730;51.512;7.504;2023-03-08T01:34:50;1.20;99.90
5415;DHT22;2730;51.512;7.504;2023-03-08T01:37:17;1.30;99.90
5415;DHT22;2730;51.512;7.504;2023-03-08T01:39:44;1.30;99.90
5415;DHT22;2730;51.512;7.504;2023-03-08T01:42:11;1.30;99.90
5415;DHT22;2730;51.512;7.504;2023-03-08T01:44:56;1.30;99.90
5415;DHT22;2730;51.512;7.504;2023-03-08T01:47:25;1.30;99.90
5415;DHT22;2730;51.512;7.504;2023-03-08T01:49:53;1.30;99.90
5415;DHT22;2730;51.512;7.504;2023-03-08T01:52:22;1.30;99.90
5415;DHT22;2730;51.512;7.504;2023-03-08T01:54:53;1.40;99.90
5415;DHT22;2730;51.512;7.504;2023-03-08T01:57:23;1.40;99.90
5415;DHT22;2730;51.512;7.504;2023-03-08T01:59:55;1.40;99.90
5415;DHT22;2730;51.512;7.504;2023-03-08T02:02:25;1.40;99.90
5415;DHT22;2730;51.512;7.504;2023-03-08T02:04:53;1.40;99.90
5415;DHT22;2730;51.512;7.504;2023-03-08T02:07:20;1.40;99.90
5415;DHT22;2730;51.512;7.504;2023-03-08T02:09:47;1.50;99.90
5415;DHT22;2730;51.512;7.504;2023-03-08T02:12:15;1.50;99.90
5415;DHT22;2730;51.512;7.504;2023-03-08T02:14:43;1.50;99.90
5415;DHT22;2730;51.512;7.504;2023-03-08T02:17:10;1.60;99.90
5415;DHT22;2730;51.512;7.504;2023-03-08T02:19:44;1.60;99.90
5415;DHT22;2730;51.512;7.504;2023-03-08T02:22:13;1.60;99.90
5415;DHT22;2730;51.512;7.504;2023-03-08T02:24:42;1.60;99.90
5415;DHT22;2730;51.512;7.504;2023-03-08T02:27:12;1.60;99.90
5415;DHT22;2730;51.512;7.504;2023-03-08T02:29:40;1.60;99.90
5415;DHT22;2730;51.512;7.504;2023-03-08T02:32:07;1.60;99.90
5415;DHT22;2730;51.512;7.504;2023-03-08T02:34:34;1.60;99.90
5415;DHT22;2730;51.512;7.504;2023-03-08T02:37:01;1.60;99.90
5415;DHT22;2730;51.512;7.504;2023-03-08T02:39:27;1.60;99.90
5415;DHT22;2730;51.512;7.504;2023-03-08T02:41:55;1.60;99.90
5415;DHT22;2730;51.512;7.504;2023-03-08T02:44:22;1.70;99.90
5415;DHT22;2730;51.512;7.504;2023-03-08T02:46:49;1.60;99.90
5415;DHT22;2730;51.512;7.504;2023-03-08T02:49:16;1.60;99.90
5415;DHT22;2730;51.512;7.504;2023-03-08T02:51:43;1.70;99.90
5415;DHT22;2730;51.512;7.504;2023-03-08T02:54:10;1.70;99.90
5415;DHT22;2730;51.512;7.504;2023-03-08T02:56:37;1.70;99.90
5415;DHT22;2730;51.512;7.504;2023-03-08T02:59:05;1.70;99.90
5415;DHT22;2730;51.512;7.504;2023-03-08T03:01:32;1.70;99.90
5415;DHT22;2730;51.512;7.504;2023-03-08T03:03:59;1.60;99.90
5415;DHT22;2730;51.512;7.504;2023-03-08T03:06:25;1.70;99.90
5415;DHT22;2730;51.512;7.504;2023-03-08T03:08:52;1.70;99.90
5415;DHT22;2730;51.512;7.504;2023-03-08T03:11:21;1.70;99.90
5415;DHT22;2730;51.512;7.504;2023-03-08T03:13:53;1.70;99.90
5415;DHT22;2730;51.512;7.504;2023-03-08T03:16:23;1.70;99.90
5415;DHT22;2730;51.512;7.504;2023-03-08T03:18:50;1.70;99.90
5415;DHT22;2730;51.512;7.504;2023-03-08T03:21:17;1.70;99.90
5415;DHT22;2730;51.512;7.504;2023-03-08T03:23:44;1.70;99.90
5415;DHT22;2730;51.512;7.504;2023-03-08T03:26:13;1.70;99.90
5415;DHT22;2730;51.512;7.504;2023-03-08T03:28:40;1.70;99.90
5415;DHT22;2730;51.512;7.504;2023-03-08T03:31:07;1.70;99.90
5415;DHT22;2730;51.512;7.504;2023-03-08T03:33:36;1.70;99.90
5415;DHT22;2730;51.512;7.504;2023-03-08T03:36:04;1.70;99.90
5415;DHT22;2730;51.512;7.504;2023-03-08T03:38:31;1.70;99.90
5415;DHT22;2730;51.512;7.504;2023-03-08T03:41:01;1.70;99.90
5415;DHT22;2730;51.512;7.504;2023-03-08T03:43:28;1.70;99.90
5415;DHT22;2730;51.512;7.504;2023-03-08T03:45:56;1.70;99.90
5415;DHT22;2730;51.512;7.504;2023-03-08T03:48:23;1.60;99.90
5415;DHT22;2730;51.512;7.504;2023-03-08T03:50:55;1.60;99.90
5415;DHT22;2730;51.512;7.504;2023-03-08T03:53:22;1.60;99.90
5415;DHT22;2730;51.512;7.504;2023-03-08T03:55:49;1.60;99.90
5415;DHT22;2730;51.512;7.504;2023-03-08T03:58:16;1.60;99.90
5415;DHT22;2730;51.512;7.504;2023-03-08T04:00:43;1.60;99.90
5415;DHT22;2730;51.512;7.504;2023-03-08T04:03:10;1.60;99.90
5415;DHT22;2730;51.512;7.504;2023-03-08T04:05:36;1.60;99.90
5415;DHT22;2730;51.512;7.504;2023-03-08T04:08:05;1.60;99.90
5415;DHT22;2730;51.512;7.504;2023-03-08T04:10:33;1.60;99.90
5415;DHT22;2730;51.512;7.504;2023-03-08T04:13:00;1.60;99.90
5415;DHT22;2730;51.512;7.504;2023-03-08T04:15:27;1.60;99.90
5415;DHT22;2730;51.512;7.504;2023-03-08T04:17:53;1.60;99.90
5415;DHT22;2730;51.512;7.504;2023-03-08T04:20:20;1.60;99.90
5415;DHT22;2730;51.512;7.504;2023-03-08T04:22:47;1.60;99.90
5415;DHT22;2730;51.512;7.504;2023-03-08T04:25:15;1.60;99.90
5415;DHT22;2730;51.512;7.504;2023-03-08T04:27:42;1.60;99.90
5415;DHT22;2730;51.512;7.504;2023-03-08T04:30:10;1.60;99.90
5415;DHT22;2730;51.512;7.504;2023-03-08T04:32:37;1.60;99.90
5415;DHT22;2730;51.512;7.504;2023-03-08T04:35:04;1.60;99.90
5415;DHT22;2730;51.512;7.504;2023-03-08T04:37:31;1.60;99.90
5415;DHT22;2730;51.512;7.504;2023-03-08T04:39:58;1.60;99.90
5415;DHT22;2730;51.512;7.504;2023-03-08T04:42:26;1.60;99.90
5415;DHT22;2730;51.512;7.504;2023-03-08T04:44:53;1.60;99.90
5415;DHT22;2730;51.512;7.504;2023-03-08T04:47:20;1.60;99.90
5415;DHT22;2730;51.512;7.504;2023-03-08T04:49:47;1.60;99.90
5415;DHT22;2730;51.512;7.504;2023-03-08T04:52:14;1.50;99.90
5415;DHT22;2730;51.512;7.504;2023-03-08T04:54:40;1.50;99.90
5415;DHT22;2730;51.512;7.504;2023-03-08T04:57:07;1.50;99.90
5415;DHT22;2730;51.512;7.504;2023-03-08T04:59:35;1.50;99.90
5415;DHT22;2730;51.512;7.504;2023-03-08T05:02:02;1.50;99.90
5415;DHT22;2730;51.512;7.504;2023-03-08T05:04:29;1.60;99.90
5415;DHT22;2730;51.512;7.504;2023-03-08T05:06:56;1.60;99.90
5415;DHT22;2730;51.512;7.504;2023-03-08T05:09:22;1.60;99.90
5415;DHT22;2730;51.512;7.504;2023-03-08T05:11:49;1.60;99.90
5415;DHT22;2730;51.512;7.504;2023-03-08T05:14:16;1.60;99.90
5415;DHT22;2730;51.512;7.504;2023-03-08T05:16:44;1.70;99.90
5415;DHT22;2730;51.512;7.504;2023-03-08T05:19:11;1.70;99.90
5415;DHT22;2730;51.512;7.504;2023-03-08T05:21:38;1.70;99.90
5415;DHT22;2730;51.512;7.504;2023-03-08T05:24:05;1.70;99.90
5415;DHT22;2730;51.512;7.504;2023-03-08T05:26:32;1.70;99.90
5415;DHT22;2730;51.512;7.504;2023-03-08T05:29:00;1.70;99.90
5415;DHT22;2730;51.512;7.504;2023-03-08T05:31:28;1.70;99.90
5415;DHT22;2730;51.512;7.504;2023-03-08T05:33:56;1.70;99.90
5415;DHT22;2730;51.512;7.504;2023-03-08T05:36:22;1.70;99.90
5415;DHT22;2730;51.512;7.504;2023-03-08T05:38:52;1.60;99.90
5415;DHT22;2730;51.512;7.504;2023-03-08T05:41:19;1.60;99.90
5415;DHT22;2730;51.512;7.504;2023-03-08T05:43:46;1.60;99.90
5415;DHT22;2730;51.512;7.504;2023-03-08T05:46:13;1.60;99.90
5415;DHT22;2730;51.512;7.504;2023-03-08T05:48:40;1.60;99.90
5415;DHT22;2730;51.512;7.504;2023-03-08T05:51:10;1.60;99.90
5415;DHT22;2730;51.512;7.504;2023-03-08T05:53:37;1.60;99.90
5415;DHT22;2730;51.512;7.504;2023-03-08T05:56:09;1.60;99.90
5415;DHT22;2730;51.512;7.504;2023-03-08T05:58:36;1.60;99.90
5415;DHT22;2730;51.512;7.504;2023-03-08T06:01:11;1.60;99.90
5415;DHT22;2730;51.512;7.504;2023-03-08T06:03:38;1.60;99.90
5415;DHT22;2730;51.512;7.504;2023-03-08T06:06:05;1.60;99.90
5415;DHT22;2730;51.512;7.504;2023-03-08T06:08:33;1.60;99.90
5415;DHT22;2730;51.512;7.504;2023-03-08T06:11:00;1.60;99.90
5415;DHT22;2730;51.512;7.504;2023-03-08T06:13:27;1.70;99.90
5415;DHT22;2730;51.512;7.504;2023-03-08T06:15:54;1.70;99.90
5415;DHT22;2730;51.512;7.504;2023-03-08T06:18:22;1.60;99.90
5415;DHT22;2730;51.512;7.504;2023-03-08T06:20:59;1.60;99.90
5415;DHT22;2730;51.512;7.504;2023-03-08T06:23:27;1.60;99.90
5415;DHT22;2730;51.512;7.504;2023-03-08T06:25:56;1.70;99.90
5415;DHT22;2730;51.512;7.504;2023-03-08T06:28:24;1.50;99.90
5415;DHT22;2730;51.512;7.504;2023-03-08T06:30:52;1.50;99.90
5415;DHT22;2730;51.512;7.504;2023-03-08T06:33:20;1.50;99.90
5415;DHT22;2730;51.512;7.504;2023-03-08T06:35:54;1.50;99.90
5415;DHT22;2730;51.512;7.504;2023-03-08T06:38:21;1.50;99.90
5415;DHT22;2730;51.512;7.504;2023-03-08T06:40:48;1.40;99.90
5415;DHT22;2730;51.512;7.504;2023-03-08T06:43:17;1.30;99.90
5415;DHT22;2730;51.512;7.504;2023-03-08T06:45:43;1.40;99.90
5415;DHT22;2730;51.512;7.504;2023-03-08T06:48:10;1.40;99.90
5415;DHT22;2730;51.512;7.504;2023-03-08T06:50:37;1.30;99.90
5415;DHT22;2730;51.512;7.504;2023-03-08T06:53:04;1.30;99.90
5415;DHT22;2730;51.512;7.504;2023-03-08T06:55:33;1.30;99.90
5415;DHT22;2730;51.512;7.504;2023-03-08T06:58:00;1.30;99.90
5415;DHT22;2730;51.512;7.504;2023-03-08T07:00:28;1.30;99.90
5415;DHT22;2730;51.512;7.504;2023-03-08T07:02:55;1.20;99.90
5415;DHT22;2730;51.512;7.504;2023-03-08T07:05:23;1.20;99.90
5415;DHT22;2730;51.512;7.504;2023-03-08T07:07:50;1.10;99.90
5415;DHT22;2730;51.512;7.504;2023-03-08T07:10:18;1.10;99.90
5415;DHT22;2730;51.512;7.504;2023-03-08T07:12:46;1.10;99.90
5415;DHT22;2730;51.512;7.504;2023-03-08T07:15:17;1.00;99.90
5415;DHT22;2730;51.512;7.504;2023-03-08T07:17:45;1.00;99.90
5415;DHT22;2730;51.512;7.504;2023-03-08T07:20:15;0.90;99.90
5415;DHT22;2730;51.512;7.504;2023-03-08T07:22:42;1.00;99.90
5415;DHT22;2730;51.512;7.504;2023-03-08T07:25:10;0.90;99.90
5415;DHT22;2730;51.512;7.504;2023-03-08T07:27:37;0.90;99.90
5415;DHT22;2730;51.512;7.504;2023-03-08T07:30:04;0.90;99.90
5415;DHT22;2730;51.512;7.504;2023-03-08T07:32:34;0.90;99.90
5415;DHT22;2730;51.512;7.504;2023-03-08T07:35:02;0.90;99.90
5415;DHT22;2730;51.512;7.504;2023-03-08T07:37:28;0.80;99.90
5415;DHT22;2730;51.512;7.504;2023-03-08T07:39:55;0.80;99.90
5415;DHT22;2730;51.512;7.504;2023-03-08T07:42:22;0.80;99.90
5415;DHT22;2730;51.512;7.504;2023-03-08T07:44:49;0.80;99.90
5415;DHT22;2730;51.512;7.504;2023-03-08T07:47:15;0.70;99.90
5415;DHT22;2730;51.512;7.504;2023-03-08T07:49:42;0.70;99.90
5415;DHT22;2730;51.512;7.504;2023-03-08T07:52:10;0.70;99.90
5415;DHT22;2730;51.512;7.504;2023-03-08T07:54:37;0.60;99.90
5415;DHT22;2730;51.512;7.504;2023-03-08T07:57:04;0.60;99.90
5415;DHT22;2730;51.512;7.504;2023-03-08T07:59:31;0.50;99.90
5415;DHT22;2730;51.512;7.504;2023-03-08T08:01:58;0.60;99.90
5415;DHT22;2730;51.512;7.504;2023-03-08T08:04:24;0.60;99.90
5415;DHT22;2730;51.512;7.504;2023-03-08T08:06:51;0.60;99.90
5415;DHT22;2730;51.512;7.504;2023-03-08T08:09:19;0.60;99.90
5415;DHT22;2730;51.512;7.504;2023-03-08T08:11:46;0.70;99.90
5415;DHT22;2730;51.512;7.504;2023-03-08T08:14:13;0.70;99.90
5415;DHT22;2730;51.512;7.504;2023-03-08T08:16:39;0.70;99.90
5415;DHT22;2730;51.512;7.504;2023-03-08T08:19:08;0.70;99.90
5415;DHT22;2730;51.512;7.504;2023-03-08T08:21:35;0.60;99.90
5415;DHT22;2730;51.512;7.504;2023-03-08T08:24:02;0.60;99.90
5415;DHT22;2730;51.512;7.504;2023-03-08T08:26:30;0.60;99.90
5415;DHT22;2730;51.512;7.504;2023-03-08T08:28:57;0.60;99.90
5415;DHT22;2730;51.512;7.504;2023-03-08T08:31:27;0.40;99.90
5415;DHT22;2730;51.512;7.504;2023-03-08T08:33:55;0.50;99.90
5415;DHT22;2730;51.512;7.504;2023-03-08T08:36:22;0.60;99.90
5415;DHT22;2730;51.512;7.504;2023-03-08T08:38:49;0.70;99.90
5415;DHT22;2730;51.512;7.504;2023-03-08T08:41:17;0.70;99.90
5415;DHT22;2730;51.512;7.504;2023-03-08T08:43:46;0.70;99.90
5415;DHT22;2730;51.512;7.504;2023-03-08T08:46:14;0.60;99.90
5415;DHT22;2730;51.512;7.504;2023-03-08T08:48:41;0.60;99.90
5415;DHT22;2730;51.512;7.504;2023-03-08T08:51:11;0.60;99.90
5415;DHT22;2730;51.512;7.504;2023-03-08T08:53:38;0.50;99.90
5415;DHT22;2730;51.512;7.504;2023-03-08T08:56:12;0.60;99.90
5415;DHT22;2730;51.512;7.504;2023-03-08T08:58:40;0.50;99.90
5415;DHT22;2730;51.512;7.504;2023-03-08T09:01:14;0.50;99.90
5415;DHT22;2730;51.512;7.504;2023-03-08T09:03:42;0.50;99.90
5415;DHT22;2730;51.512;7.504;2023-03-08T09:06:09;0.50;99.90
5415;DHT22;2730;51.512;7.504;2023-03-08T09:08:36;0.50;99.90
5415;DHT22;2730;51.512;7.504;2023-03-08T09:11:03;0.60;99.90
5415;DHT22;2730;51.512;7.504;2023-03-08T09:13:31;0.70;99.90
5415;DHT22;2730;51.512;7.504;2023-03-08T09:15:58;0.70;99.90
5415;DHT22;2730;51.512;7.504;2023-03-08T09:18:26;0.70;99.90
5415;DHT22;2730;51.512;7.504;2023-03-08T09:20:53;0.60;99.90
5415;DHT22;2730;51.512;7.504;2023-03-08T09:23:19;0.60;99.90
5415;DHT22;2730;51.512;7.504;2023-03-08T09:25:54;0.60;99.90
5415;DHT22;2730;51.512;7.504;2023-03-08T09:28:21;0.70;99.90
5415;DHT22;2730;51.512;7.504;2023-03-08T09:30:48;0.80;99.90
5415;DHT22;2730;51.512;7.504;2023-03-08T09:33:15;0.70;99.90
5415;DHT22;2730;51.512;7.504;2023-03-08T09:35:43;0.60;99.90
5415;DHT22;2730;51.512;7.504;2023-03-08T09:38:10;0.60;99.90
5415;DHT22;2730;51.512;7.504;2023-03-08T09:40:42;0.60;99.90
5415;DHT22;2730;51.512;7.504;2023-03-08T09:43:22;0.60;99.90
5415;DHT22;2730;51.512;7.504;2023-03-08T09:45:53;0.70;99.90
5415;DHT22;2730;51.512;7.504;2023-03-08T09:48:23;0.70;99.90
5415;DHT22;2730;51.512;7.504;2023-03-08T09:50:54;0.70;99.90
5415;DHT22;2730;51.512;7.504;2023-03-08T09:53:26;0.70;99.90
5415;DHT22;2730;51.512;7.504;2023-03-08T09:55:55;0.70;99.90
5415;DHT22;2730;51.512;7.504;2023-03-08T09:58:32;0.80;99.90
5415;DHT22;2730;51.512;7.504;2023-03-08T10:01:05;0.80;99.90
5415;DHT22;2730;51.512;7.504;2023-03-08T10:06:33;1.00;99.90
5415;DHT22;2730;51.512;7.504;2023-03-08T10:09:06;1.00;99.90
5415;DHT22;2730;51.512;7.504;2023-03-08T10:11:44;1.10;99.90
5415;DHT22;2730;51.512;7.504;2023-03-08T10:14:17;1.00;99.90
5415;DHT22;2730;51.512;7.504;2023-03-08T10:16:48;1.10;99.90
5415;DHT22;2730;51.512;7.504;2023-03-08T10:19:19;1.30;99.90
5415;DHT22;2730;51.512;7.504;2023-03-08T10:21:50;1.30;99.90
5415;DHT22;2730;51.512;7.504;2023-03-08T10:24:21;1.40;99.90
5415;DHT22;2730;51.512;7.504;2023-03-08T10:26:52;1.50;99.90
5415;DHT22;2730;51.512;7.504;2023-03-08T10:29:19;1.40;99.90
5415;DHT22;2730;51.512;7.504;2023-03-08T10:31:46;1.30;99.90
5415;DHT22;2730;51.512;7.504;2023-03-08T10:34:15;1.20;99.90
5415;DHT22;2730;51.512;7.504;2023-03-08T10:36:49;1.30;99.90
5415;DHT22;2730;51.512;7.504;2023-03-08T10:39:17;1.30;99.90
5415;DHT22;2730;51.512;7.504;2023-03-08T10:41:47;1.30;99.90
5415;DHT22;2730;51.512;7.504;2023-03-08T10:44:27;1.40;99.90
5415;DHT22;2730;51.512;7.504;2023-03-08T10:46:55;1.30;99.90
5415;DHT22;2730;51.512;7.504;2023-03-08T10:49:23;1.30;99.90
5415;DHT22;2730;51.512;7.504;2023-03-08T10:51:57;1.30;99.90
5415;DHT22;2730;51.512;7.504;2023-03-08T10:54:24;1.30;99.90
5415;DHT22;2730;51.512;7.504;2023-03-08T10:56:54;1.40;99.90
5415;DHT22;2730;51.512;7.504;2023-03-08T10:59:24;1.40;99.90
5415;DHT22;2730;51.512;7.504;2023-03-08T11:01:58;1.50;99.90
5415;DHT22;2730;51.512;7.504;2023-03-08T11:04:27;1.50;99.90
5415;DHT22;2730;51.512;7.504;2023-03-08T11:06:56;1.40;99.90
5415;DHT22;2730;51.512;7.504;2023-03-08T11:09:24;1.50;99.90
5415;DHT22;2730;51.512;7.504;2023-03-08T11:11:53;1.70;99.90
5415;DHT22;2730;51.512;7.504;2023-03-08T11:14:21;1.90;99.90
5415;DHT22;2730;51.512;7.504;2023-03-08T11:16:52;2.00;99.90
5415;DHT22;2730;51.512;7.504;2023-03-08T11:19:41;1.90;99.90
5415;DHT22;2730;51.512;7.504;2023-03-08T11:22:23;1.90;99.90
5415;DHT22;2730;51.512;7.504;2023-03-08T11:25:00;1.90;99.90
5415;DHT22;2730;51.512;7.504;2023-03-08T11:27:38;1.80;99.90
5415;DHT22;2730;51.512;7.504;2023-03-08T11:30:18;1.90;99.90
5415;DHT22;2730;51.512;7.504;2023-03-08T11:32:55;1.80;99.90
5415;DHT22;2730;51.512;7.504;2023-03-08T11:35:30;1.80;99.90
5415;DHT22;2730;51.512;7.504;2023-03-08T11:38:04;1.70;99.90
5415;DHT22;2730;51.512;7.504;2023-03-08T11:40:47;1.60;99.90
5415;DHT22;2730;51.512;7.504;2023-03-08T11:43:29;1.60;99.90
5415;DHT22;2730;51.512;7.504;2023-03-08T11:46:04;1.60;99.90
5415;DHT22;2730;51.512;7.504;2023-03-08T11:48:54;1.60;99.90
5415;DHT22;2730;51.512;7.504;2023-03-08T11:51:28;1.60;99.90
5415;DHT22;2730;51.512;7.504;2023-03-08T11:54:08;1.70;99.90
5415;DHT22;2730;51.512;7.504;2023-03-08T11:56:49;1.60;99.90
5415;DHT22;2730;51.512;7.504;2023-03-08T11:59:21;1.60;99.90
5415;DHT22;2730;51.512;7.504;2023-03-08T12:01:53;1.60;99.90
5415;DHT22;2730;51.512;7.504;2023-03-08T12:04:26;1.60;99.90
5415;DHT22;2730;51.512;7.504;2023-03-08T12:06:57;1.70;99.90
5415;DHT22;2730;51.512;7.504;2023-03-08T12:09:30;1.70;99.90
5415;DHT22;2730;51.512;7.504;2023-03-08T12:12:04;1.70;99.90
5415;DHT22;2730;51.512;7.504;2023-03-08T12:14:33;1.70;99.90
5415;DHT22;2730;51.512;7.504;2023-03-08T12:17:05;1.70;99.90
5415;DHT22;2730;51.512;7.504;2023-03-08T12:19:39;1.70;99.90
5415;DHT22;2730;51.512;7.504;2023-03-08T12:22:22;1.60;99.90
5415;DHT22;2730;51.512;7.504;2023-03-08T12:24:57;1.60;99.90
5415;DHT22;2730;51.512;7.504;2023-03-08T12:27:29;1.70;99.90
5415;DHT22;2730;51.512;7.504;2023-03-08T12:30:02;1.60;99.90
5415;DHT22;2730;51.512;7.504;2023-03-08T12:32:30;1.70;99.90
5415;DHT22;2730;51.512;7.504;2023-03-08T12:35:02;1.70;99.90
5415;DHT22;2730;51.512;7.504;2023-03-08T12:37:30;1.70;99.90
5415;DHT22;2730;51.512;7.504;2023-03-08T12:40:00;1.70;99.90
5415;DHT22;2730;51.512;7.504;2023-03-08T12:42:33;1.60;99.90
5415;DHT22;2730;51.512;7.504;2023-03-08T12:45:26;1.60;99.90
5415;DHT22;2730;51.512;7.504;2023-03-08T12:48:08;1.60;99.90
5415;DHT22;2730;51.512;7.504;2023-03-08T12:50:41;1.60;99.90
5415;DHT22;2730;51.512;7.504;2023-03-08T12:53:25;1.60;99.90
5415;DHT22;2730;51.512;7.504;2023-03-08T12:56:03;1.60;99.90
5415;DHT22;2730;51.512;7.504;2023-03-08T12:58:31;1.70;99.90
5415;DHT22;2730;51.512;7.504;2023-03-08T13:01:00;1.60;99.90
5415;DHT22;2730;51.512;7.504;2023-03-08T13:03:35;1.60;99.90
5415;DHT22;2730;51.512;7.504;2023-03-08T13:06:14;1.60;99.90
5415;DHT22;2730;51.512;7.504;2023-03-08T13:08:47;1.50;99.90
5415;DHT22;2730;51.512;7.504;2023-03-08T13:11:17;1.60;99.90
5415;DHT22;2730;51.512;7.504;2023-03-08T13:13:51;1.50;99.90
5415;DHT22;2730;51.512;7.504;2023-03-08T13:16:30;1.60;99.90
5415;DHT22;2730;51.512;7.504;2023-03-08T13:19:07;1.60;99.90
5415;DHT22;2730;51.512;7.504;2023-03-08T13:21:46;1.70;99.90
5415;DHT22;2730;51.512;7.504;2023-03-08T13:24:29;1.90;99.90
5415;DHT22;2730;51.512;7.504;2023-03-08T13:27:12;1.80;99.90
5415;DHT22;2730;51.512;7.504;2023-03-08T13:29:42;1.80;99.90
5415;DHT22;2730;51.512;7.504;2023-03-08T13:32:12;1.80;99.90
5415;DHT22;2730;51.512;7.504;2023-03-08T13:34:41;1.70;99.90
5415;DHT22;2730;51.512;7.504;2023-03-08T13:37:19;1.70;99.90
5415;DHT22;2730;51.512;7.504;2023-03-08T13:39:51;1.70;99.90
5415;DHT22;2730;51.512;7.504;2023-03-08T13:42:20;1.70;99.90
5415;DHT22;2730;51.512;7.504;2023-03-08T13:44:49;1.80;99.90
5415;DHT22;2730;51.512;7.504;2023-03-08T13:47:21;1.90;99.90
5415;DHT22;2730;51.512;7.504;2023-03-08T13:49:50;1.80;99.90
5415;DHT22;2730;51.512;7.504;2023-03-08T13:52:20;1.80;99.90
5415;DHT22;2730;51.512;7.504;2023-03-08T13:54:50;1.80;99.90
5415;DHT22;2730;51.512;7.504;2023-03-08T13:57:21;1.80;99.90
5415;DHT22;2730;51.512;7.504;2023-03-08T13:59:50;1.80;99.90
5415;DHT22;2730;51.512;7.504;2023-03-08T14:02:19;1.80;99.90
5415;DHT22;2730;51.512;7.504;2023-03-08T14:04:47;1.80;99.90
5415;DHT22;2730;51.512;7.504;2023-03-08T14:07:20;1.80;99.90
5415;DHT22;2730;51.512;7.504;2023-03-08T14:09:47;1.70;99.90
5415;DHT22;2730;51.512;7.504;2023-03-08T14:12:16;1.70;99.90
5415;DHT22;2730;51.512;7.504;2023-03-08T14:14:49;1.70;99.90
5415;DHT22;2730;51.512;7.504;2023-03-08T14:17:19;1.70;99.90
5415;DHT22;2730;51.512;7.504;2023-03-08T14:19:52;1.80;99.90
5415;DHT22;2730;51.512;7.504;2023-03-08T14:22:21;1.80;99.90
5415;DHT22;2730;51.512;7.504;2023-03-08T14:24:51;1.90;99.90
5415;DHT22;2730;51.512;7.504;2023-03-08T14:27:38;1.80;99.90
5415;DHT22;2730;51.512;7.504;2023-03-08T14:30:13;1.70;99.90
5415;DHT22;2730;51.512;7.504;2023-03-08T14:32:41;1.80;99.90
5415;DHT22;2730;51.512;7.504;2023-03-08T14:35:22;1.90;99.90
5415;DHT22;2730;51.512;7.504;2023-03-08T14:37:51;2.00;99.90
5415;DHT22;2730;51.512;7.504;2023-03-08T14:40:27;2.10;99.90
5415;DHT22;2730;51.512;7.504;2023-03-08T14:42:56;2.00;99.90
5415;DHT22;2730;51.512;7.504;2023-03-08T14:45:27;2.00;99.90
5415;DHT22;2730;51.512;7.504;2023-03-08T14:47:56;2.00;99.90
5415;DHT22;2730;51.512;7.504;2023-03-08T14:50:25;2.00;99.90
5415;DHT22;2730;51.512;7.504;2023-03-08T14:52:54;1.90;99.90
5415;DHT22;2730;51.512;7.504;2023-03-08T14:55:23;1.80;99.90
5415;DHT22;2730;51.512;7.504;2023-03-08T14:57:52;1.90;99.90
5415;DHT22;2730;51.512;7.504;2023-03-08T15:00:21;1.90;99.90
5415;DHT22;2730;51.512;7.504;2023-03-08T15:02:49;1.90;99.90
5415;DHT22;2730;51.512;7.504;2023-03-08T15:05:18;1.90;99.90
5415;DHT22;2730;51.512;7.504;2023-03-08T15:07:46;2.00;99.90
5415;DHT22;2730;51.512;7.504;2023-03-08T15:10:21;1.90;99.90
5415;DHT22;2730;51.512;7.504;2023-03-08T15:12:49;1.90;99.90
5415;DHT22;2730;51.512;7.504;2023-03-08T15:15:16;1.90;99.90
5415;DHT22;2730;51.512;7.504;2023-03-08T15:17:43;1.90;99.90
5415;DHT22;2730;51.512;7.504;2023-03-08T15:20:12;1.90;99.90
5415;DHT22;2730;51.512;7.504;2023-03-08T15:22:42;1.80;99.90
5415;DHT22;2730;51.512;7.504;2023-03-08T15:25:15;1.90;99.90
5415;DHT22;2730;51.512;7.504;2023-03-08T15:27:43;1.90;99.90
5415;DHT22;2730;51.512;7.504;2023-03-08T15:30:17;1.90;99.90
5415;DHT22;2730;51.512;7.504;2023-03-08T15:32:44;1.90;99.90
5415;DHT22;2730;51.512;7.504;2023-03-08T15:35:13;1.90;99.90
5415;DHT22;2730;51.512;7.504;2023-03-08T15:37:40;2.00;99.90
5415;DHT22;2730;51.512;7.504;2023-03-08T15:40:11;1.90;99.90
5415;DHT22;2730;51.512;7.504;2023-03-08T15:42:39;1.90;99.90
5415;DHT22;2730;51.512;7.504;2023-03-08T15:45:07;2.00;99.90
5415;DHT22;2730;51.512;7.504;2023-03-08T15:47:34;2.00;99.90
5415;DHT22;2730;51.512;7.504;2023-03-08T15:50:00;2.00;99.90
5415;DHT22;2730;51.512;7.504;2023-03-08T15:52:29;1.90;99.90
5415;DHT22;2730;51.512;7.504;2023-03-08T15:54:56;1.90;99.90
5415;DHT22;2730;51.512;7.504;2023-03-08T15:57:23;2.00;99.90
5415;DHT22;2730;51.512;7.504;2023-03-08T15:59:49;2.10;99.90
5415;DHT22;2730;51.512;7.504;2023-03-08T16:02:18;2.10;99.90
5415;DHT22;2730;51.512;7.504;2023-03-08T16:04:45;2.00;99.90
5415;DHT22;2730;51.512;7.504;2023-03-08T16:07:13;2.00;99.90
5415;DHT22;2730;51.512;7.504;2023-03-08T16:09:41;2.00;99.90
5415;DHT22;2730;51.512;7.504;2023-03-08T16:12:09;1.90;99.90
5415;DHT22;2730;51.512;7.504;2023-03-08T16:14:36;1.90;99.90
5415;DHT22;2730;51.512;7.504;2023-03-08T16:17:03;1.90;99.90
5415;DHT22;2730;51.512;7.504;2023-03-08T16:19:31;1.90;99.90
5415;DHT22;2730;51.512;7.504;2023-03-08T16:21:58;2.00;99.90
5415;DHT22;2730;51.512;7.504;2023-03-08T16:24:25;1.90;99.90
5415;DHT22;2730;51.512;7.504;2023-03-08T16:26:53;1.80;99.90
5415;DHT22;2730;51.512;7.504;2023-03-08T16:29:20;1.80;99.90
5415;DHT22;2730;51.512;7.504;2023-03-08T16:31:47;1.80;99.90
5415;DHT22;2730;51.512;7.504;2023-03-08T16:34:15;1.70;99.90